createdAt,value
2022-11-13T00:01:11.139Z,100743.25
2022-11-13T00:03:39.482Z,100742.31
2022-11-13T00:06:07.793Z,100747.81
2022-11-13T00:08:35.809Z,100747.09
2022-11-13T00:11:05.243Z,100746.28
2022-11-13T00:13:33.495Z,100748.13
2022-11-13T00:16:03.834Z,100740.34
2022-11-13T00:18:35.760Z,100750.00
2022-11-13T00:21:06.879Z,100732.31
2022-11-13T00:23:36.629Z,100734.53
2022-11-13T00:26:06.642Z,100727.06
2022-11-13T00:28:34.885Z,100732.56
2022-11-13T00:31:03.558Z,100738.16
2022-11-13T00:34:01.864Z,100730.56
2022-11-13T00:36:26.307Z,100725.22
2022-11-13T00:38:55.468Z,100718.38
2022-11-13T00:41:23.981Z,100720.56
2022-11-13T00:43:51.950Z,100717.19
2022-11-13T00:46:20.307Z,100713.59
2022-11-13T00:48:49.851Z,100709.72
2022-11-13T00:51:19.618Z,100716.81
2022-11-13T00:53:47.673Z,100716.69
2022-11-13T00:56:15.784Z,100719.69
2022-11-13T00:58:43.792Z,100714.59
2022-11-13T01:01:14.042Z,100723.56
2022-11-13T01:03:42.351Z,100725.19
2022-11-13T01:06:13.700Z,100720.97
2022-11-13T01:08:42.113Z,100723.75
2022-11-13T01:11:11.374Z,100728.41
2022-11-13T01:13:39.717Z,100724.19
2022-11-13T01:16:09.829Z,100722.34
2022-11-13T01:18:37.961Z,100717.56
2022-11-13T01:21:07.589Z,100725.00
2022-11-13T01:23:37.470Z,100734.59
2022-11-13T01:26:08.071Z,100732.50
2022-11-13T01:28:36.121Z,100728.16
2022-11-13T01:31:06.846Z,100715.25
2022-11-13T01:33:34.912Z,100723.88
2022-11-13T01:36:03.849Z,100720.13
2022-11-13T01:38:35.908Z,100729.81
2022-11-13T01:41:07.188Z,100729.22
2022-11-13T01:43:37.678Z,100720.59
2022-11-13T01:46:21.563Z,100712.56
2022-11-13T01:48:52.882Z,100704.22
2022-11-13T01:51:28.067Z,100706.88
2022-11-13T01:53:57.116Z,100697.78
2022-11-13T01:56:26.869Z,100699.66
2022-11-13T01:58:59.718Z,100694.78
2022-11-13T02:01:27.800Z,100697.00
2022-11-13T02:03:55.795Z,100702.94
2022-11-13T02:06:23.871Z,100698.16
2022-11-13T02:08:52.340Z,100700.34
2022-11-13T02:11:21.477Z,100699.28
2022-11-13T02:13:51.341Z,100697.91
2022-11-13T02:16:20.559Z,100708.38
2022-11-13T02:18:48.722Z,100709.91
2022-11-13T02:21:33.774Z,100702.81
2022-11-13T02:24:18.093Z,100700.41
2022-11-13T02:26:46.507Z,100713.53
2022-11-13T02:29:14.564Z,100714.34
2022-11-13T02:31:42.688Z,100714.59
2022-11-13T02:34:10.691Z,100715.25
2022-11-13T02:36:38.794Z,100708.50
2022-11-13T02:39:10.593Z,100712.72
2022-11-13T02:41:39.944Z,100722.63
2022-11-13T02:44:08.457Z,100726.31
2022-11-13T02:46:36.772Z,100720.41
2022-11-13T02:49:05.023Z,100712.38
2022-11-13T02:51:33.113Z,100709.72
2022-11-13T02:54:01.175Z,100703.06
2022-11-13T02:56:29.207Z,100709.34
2022-11-13T02:58:58.646Z,100712.09
2022-11-13T03:01:26.748Z,100707.31
2022-11-13T03:03:58.481Z,100714.88
2022-11-13T03:06:26.842Z,100705.25
2022-11-13T03:08:54.831Z,100704.44
2022-11-13T03:11:22.905Z,100707.44
2022-11-13T03:13:50.875Z,100703.69
2022-11-13T03:16:20.369Z,100704.50
2022-11-13T03:18:48.422Z,100706.47
2022-11-13T03:21:17.282Z,100710.28
2022-11-13T03:23:46.212Z,100710.66
2022-11-13T03:26:17.608Z,100704.56
2022-11-13T03:28:45.615Z,100713.03
2022-11-13T03:31:13.827Z,100706.97
2022-11-13T03:33:43.544Z,100713.72
2022-11-13T03:36:11.653Z,100718.34
2022-11-13T03:38:39.817Z,100722.97
2022-11-13T03:41:07.843Z,100708.28
2022-11-13T03:43:35.983Z,100720.78
2022-11-13T03:46:04.127Z,100718.88
2022-11-13T03:48:32.341Z,100724.03
2022-11-13T03:51:01.971Z,100711.63
2022-11-13T03:53:29.949Z,100708.50
2022-11-13T03:55:58.001Z,100719.00
2022-11-13T03:58:26.278Z,100718.41
2022-11-13T04:00:55.672Z,100718.19
2022-11-13T04:03:24.134Z,100707.97
2022-11-13T04:05:52.658Z,100719.97
2022-11-13T04:08:22.206Z,100724.78
2022-11-13T04:10:50.227Z,100714.50
2022-11-13T04:13:18.278Z,100718.00
2022-11-13T04:15:46.442Z,100714.88
2022-11-13T04:18:14.491Z,100712.78
2022-11-13T04:20:42.442Z,100703.25
2022-11-13T04:23:12.708Z,100709.38
2022-11-13T04:25:42.168Z,100700.81
2022-11-13T04:28:10.779Z,100701.97
2022-11-13T04:30:39.085Z,100699.28
2022-11-13T04:33:07.667Z,100707.44
2022-11-13T04:35:35.831Z,100695.00
2022-11-13T04:38:04.045Z,100695.34
2022-11-13T04:40:32.043Z,100701.41
2022-11-13T04:43:00.393Z,100703.81
2022-11-13T04:45:28.669Z,100704.75
2022-11-13T04:47:56.840Z,100701.03
2022-11-13T04:50:25.120Z,100705.31
2022-11-13T04:52:53.138Z,100696.81
2022-11-13T04:55:21.281Z,100693.44
2022-11-13T04:57:51.653Z,100705.06
2022-11-13T05:00:21.424Z,100696.09
2022-11-13T05:02:49.488Z,100709.59
2022-11-13T05:05:17.822Z,100703.31
2022-11-13T05:07:45.925Z,100700.88
2022-11-13T05:10:14.293Z,100706.91
2022-11-13T05:12:42.295Z,100700.75
2022-11-13T05:15:10.802Z,100705.28
2022-11-13T05:17:40.222Z,100705.28
2022-11-13T05:20:09.491Z,100692.16
2022-11-13T05:22:37.578Z,100707.75
2022-11-13T05:25:06.217Z,100702.19
2022-11-13T05:27:34.238Z,100711.50
2022-11-13T05:30:02.242Z,100706.03
2022-11-13T05:32:30.185Z,100701.25
2022-11-13T05:34:59.530Z,100712.69
2022-11-13T05:37:29.508Z,100713.16
2022-11-13T05:39:57.548Z,100710.00
2022-11-13T05:42:25.949Z,100709.28
2022-11-13T05:44:53.918Z,100716.38
2022-11-13T05:47:21.948Z,100718.59
2022-11-13T05:49:49.988Z,100712.88
2022-11-13T05:52:19.414Z,100710.56
2022-11-13T05:54:47.474Z,100723.47
2022-11-13T05:57:15.510Z,100733.38
2022-11-13T05:59:43.613Z,100731.03
2022-11-13T06:02:11.678Z,100734.31
2022-11-13T06:04:39.806Z,100733.72
2022-11-13T06:07:07.912Z,100733.25
2022-11-13T06:09:37.377Z,100724.75
2022-11-13T06:12:05.935Z,100726.97
2022-11-13T06:14:34.006Z,100727.44
2022-11-13T06:17:02.061Z,100729.75
2022-11-13T06:19:30.128Z,100734.53
2022-11-13T06:21:58.121Z,100728.38
2022-11-13T06:24:26.162Z,100735.09
2022-11-13T06:26:55.588Z,100733.72
2022-11-13T06:29:23.685Z,100733.25
2022-11-13T06:31:51.791Z,100732.06
2022-11-13T06:34:19.975Z,100732.31
2022-11-13T06:36:47.956Z,100717.19
2022-11-13T06:39:16.263Z,100733.69
2022-11-13T06:41:44.299Z,100724.34
2022-11-13T06:44:13.691Z,100723.34
2022-11-13T06:46:41.809Z,100728.00
2022-11-13T06:49:10.087Z,100722.59
2022-11-13T06:51:38.048Z,100722.88
2022-11-13T06:54:06.474Z,100725.53
2022-11-13T06:56:34.468Z,100720.91
2022-11-13T06:59:06.281Z,100708.28
2022-11-13T07:01:37.734Z,100716.88
2022-11-13T07:04:06.495Z,100707.81
2022-11-13T07:06:40.025Z,100708.53
2022-11-13T07:09:08.545Z,100704.88
2022-11-13T07:11:36.926Z,100713.13
2022-11-13T07:14:06.570Z,100714.56
2022-11-13T07:16:56.373Z,100705.25
2022-11-13T07:19:23.998Z,100704.38
2022-11-13T07:21:51.993Z,100711.47
2022-11-13T07:24:19.951Z,100709.38
2022-11-13T07:26:48.135Z,100709.91
2022-11-13T07:29:16.231Z,100721.47
2022-11-13T07:31:44.201Z,100719.72
2022-11-13T07:34:12.172Z,100724.16
2022-11-13T07:36:41.628Z,100707.34
2022-11-13T07:39:09.634Z,100720.13
2022-11-13T07:41:37.560Z,100717.41
2022-11-13T07:44:09.110Z,100711.38
2022-11-13T07:46:37.758Z,100709.03
2022-11-13T07:49:05.950Z,100703.88
2022-11-13T07:51:35.171Z,100709.97
2022-11-13T07:54:04.770Z,100702.50
2022-11-13T07:56:32.830Z,100704.13
2022-11-13T07:59:00.893Z,100704.00
2022-11-13T08:01:28.946Z,100701.13
2022-11-13T08:03:57.007Z,100696.97
2022-11-13T08:06:27.669Z,100697.94
2022-11-13T08:08:55.792Z,100694.84
2022-11-13T08:11:25.304Z,100693.06
2022-11-13T08:13:53.981Z,100695.50
2022-11-13T08:16:23.529Z,100694.19
2022-11-13T08:18:53.220Z,100696.63
2022-11-13T08:21:21.617Z,100694.31
2022-11-13T08:23:50.375Z,100690.09
2022-11-13T08:26:18.809Z,100687.72
2022-11-13T08:28:48.893Z,100689.19
2022-11-13T08:31:18.470Z,100688.56
2022-11-13T08:33:46.637Z,100684.13
2022-11-13T08:36:14.782Z,100684.94
2022-11-13T08:38:42.833Z,100687.97
2022-11-13T08:41:10.905Z,100691.28
2022-11-13T08:43:39.138Z,100693.84
2022-11-13T08:46:08.593Z,100687.44
2022-11-13T08:48:37.793Z,100695.25
2022-11-13T08:51:06.038Z,100688.31
2022-11-13T08:53:34.230Z,100693.78
2022-11-13T08:56:03.094Z,100690.41
2022-11-13T08:58:31.614Z,100703.16
2022-11-13T09:01:03.098Z,100699.44
2022-11-13T09:03:38.807Z,100697.91
2022-11-13T09:06:07.785Z,100699.63
2022-11-13T09:08:35.906Z,100700.78
2022-11-13T09:11:05.364Z,100697.56
2022-11-13T09:13:33.630Z,100698.09
2022-11-13T09:16:02.463Z,100690.28
2022-11-13T09:18:32.254Z,100688.44
2022-11-13T09:21:03.075Z,100679.59
2022-11-13T09:23:31.154Z,100673.09
2022-11-13T09:26:03.158Z,100668.50
2022-11-13T09:28:31.523Z,100669.31
2022-11-13T09:30:59.834Z,100666.38
2022-11-13T09:33:27.880Z,100666.97
2022-11-13T09:35:57.308Z,100660.59
2022-11-13T09:38:25.662Z,100665.34
2022-11-13T09:40:58.865Z,100663.16
2022-11-13T09:43:32.385Z,100659.38
2022-11-13T09:46:04.279Z,100657.47
2022-11-13T09:48:36.529Z,100654.00
2022-11-13T09:51:13.138Z,100657.81
2022-11-13T09:53:41.926Z,100654.63
2022-11-13T09:56:20.962Z,100651.75
2022-11-13T09:58:55.329Z,100642.91
2022-11-13T10:01:29.874Z,100640.28
2022-11-13T10:04:04.137Z,100638.16
2022-11-13T10:06:45.695Z,100633.84
2022-11-13T10:09:25.988Z,100625.28
2022-11-13T10:11:56.861Z,100626.94
2022-11-13T10:14:39.133Z,100619.38
2022-11-13T10:17:16.456Z,100610.50
2022-11-13T10:19:57.686Z,100606.94
2022-11-13T10:22:33.431Z,100608.25
2022-11-13T10:25:11.733Z,100604.22
2022-11-13T10:27:40.499Z,100601.25
2022-11-13T10:30:16.193Z,100588.56
2022-11-13T10:32:46.611Z,100586.66
2022-11-13T10:35:31.165Z,100586.38
2022-11-13T10:38:08.098Z,100588.56
2022-11-13T10:40:38.902Z,100588.84
2022-11-13T10:43:14.634Z,100578.06
2022-11-13T10:45:43.210Z,100585.31
2022-11-13T10:48:21.890Z,100576.00
2022-11-13T10:50:58.241Z,100577.63
2022-11-13T10:53:34.125Z,100573.03
2022-11-13T10:56:02.153Z,100567.34
2022-11-13T10:58:30.435Z,100575.66
2022-11-13T11:00:58.681Z,100570.00
2022-11-13T11:03:29.391Z,100553.31
2022-11-13T11:05:58.787Z,100558.41
2022-11-13T11:08:32.390Z,100549.56
2022-11-13T11:11:20.427Z,100551.19
2022-11-13T11:13:49.900Z,100547.69
2022-11-13T11:16:22.130Z,100548.56
2022-11-13T11:18:55.133Z,100548.50
2022-11-13T11:21:28.683Z,100543.50
2022-11-13T11:24:05.806Z,100545.94
2022-11-13T11:26:38.950Z,100535.16
2022-11-13T11:29:17.364Z,100528.44
2022-11-13T11:31:51.836Z,100531.94
2022-11-13T11:34:23.407Z,100528.19
2022-11-13T11:37:08.199Z,100517.47
2022-11-13T11:39:43.774Z,100518.84
2022-11-13T11:42:20.918Z,100511.59
2022-11-13T11:45:04.903Z,100510.81
2022-11-13T11:47:34.731Z,100508.94
2022-11-13T11:50:03.215Z,100510.59
2022-11-13T11:52:54.082Z,100513.81
2022-11-13T11:55:39.798Z,100497.34
2022-11-13T11:58:27.933Z,100497.63
2022-11-13T12:01:05.834Z,100495.47
2022-11-13T12:04:02.817Z,100489.56
2022-11-13T12:06:44.378Z,100492.78
2022-11-13T12:09:20.559Z,100486.28
2022-11-13T12:11:56.432Z,100484.13
2022-11-13T12:14:38.175Z,100477.03
2022-11-13T12:17:21.386Z,100476.69
2022-11-13T12:20:02.032Z,100475.31
2022-11-13T12:22:39.892Z,100465.25
2022-11-13T12:25:19.742Z,100462.28
2022-11-13T12:27:58.918Z,100454.63
2022-11-13T12:30:36.689Z,100452.94
2022-11-13T12:33:16.331Z,100448.06
2022-11-13T12:35:47.994Z,100450.44
2022-11-13T12:38:27.714Z,100445.38
2022-11-13T12:41:03.989Z,100451.06
2022-11-13T12:44:01.107Z,100450.63
2022-11-13T12:46:38.332Z,100458.06
2022-11-13T12:49:17.833Z,100444.25
2022-11-13T12:51:55.512Z,100451.16
2022-11-13T12:54:28.505Z,100452.09
2022-11-13T12:57:09.162Z,100447.50
2022-11-13T12:59:42.165Z,100447.56
2022-11-13T13:02:32.945Z,100444.91
2022-11-13T13:05:14.915Z,100444.44
2022-11-13T13:08:15.746Z,100447.00
2022-11-13T13:10:56.229Z,100459.00
2022-11-13T13:13:31.987Z,100450.03
2022-11-13T13:16:06.956Z,100447.69
2022-11-13T13:18:37.402Z,100435.75
2022-11-13T13:21:08.776Z,100432.03
2022-11-13T13:23:40.524Z,100423.63
2022-11-13T13:26:17.549Z,100431.06
2022-11-13T13:28:50.571Z,100430.09
2022-11-13T13:31:30.891Z,100436.19
2022-11-13T13:34:23.328Z,100425.72
2022-11-13T13:37:03.489Z,100416.72
2022-11-13T13:39:41.193Z,100417.53
2022-11-13T13:42:27.537Z,100426.53
2022-11-13T13:45:09.471Z,100422.78
2022-11-13T13:47:41.679Z,100419.41
2022-11-13T13:50:16.453Z,100421.06
2022-11-13T13:52:48.873Z,100418.28
2022-11-13T13:55:23.057Z,100417.28
2022-11-13T13:57:51.213Z,100417.31
2022-11-13T14:00:21.801Z,100418.94
2022-11-13T14:02:53.744Z,100407.63
2022-11-13T14:05:28.774Z,100403.84
2022-11-13T14:07:56.895Z,100411.91
2022-11-13T14:10:27.990Z,100398.97
2022-11-13T14:12:57.496Z,100396.22
2022-11-13T14:15:29.433Z,100400.44
2022-11-13T14:18:10.275Z,100406.84
2022-11-13T14:20:46.768Z,100399.78
2022-11-13T14:23:20.734Z,100398.94
2022-11-13T14:25:50.029Z,100411.19
2022-11-13T14:28:21.956Z,100404.41
2022-11-13T14:30:55.964Z,100406.81
2022-11-13T14:33:30.627Z,100397.44
2022-11-13T14:35:59.623Z,100393.81
2022-11-13T14:38:30.036Z,100392.53
2022-11-13T14:40:59.275Z,100400.84
2022-11-13T14:43:31.160Z,100408.09
2022-11-13T14:46:01.002Z,100403.81
2022-11-13T14:48:32.409Z,100399.56
2022-11-13T14:51:02.441Z,100397.94
2022-11-13T14:53:32.855Z,100399.00
2022-11-13T14:56:02.732Z,100397.88
2022-11-13T14:58:32.816Z,100394.81
2022-11-13T15:01:01.401Z,100398.81
2022-11-13T15:03:31.109Z,100399.56
2022-11-13T15:05:59.533Z,100398.69
2022-11-13T15:08:28.462Z,100398.97
2022-11-13T15:10:58.535Z,100402.50
2022-11-13T15:13:26.854Z,100407.13
2022-11-13T15:15:55.178Z,100406.78
2022-11-13T15:18:23.290Z,100400.09
2022-11-13T15:20:52.808Z,100398.50
2022-11-13T15:23:24.578Z,100402.53
2022-11-13T15:25:52.908Z,100390.72
2022-11-13T15:28:20.920Z,100395.28
2022-11-13T15:30:48.966Z,100403.31
2022-11-13T15:33:17.881Z,100405.13
2022-11-13T15:35:45.877Z,100404.03
2022-11-13T15:38:15.220Z,100404.03
2022-11-13T15:40:43.208Z,100409.91
2022-11-13T15:43:20.332Z,100396.50
2022-11-13T15:45:48.308Z,100405.94
2022-11-13T15:48:16.429Z,100403.00
2022-11-13T15:50:44.449Z,100403.53
2022-11-13T15:53:13.281Z,100400.28
2022-11-13T15:55:43.254Z,100401.59
2022-11-13T15:58:16.096Z,100398.06
2022-11-13T16:00:46.189Z,100409.06
2022-11-13T16:03:14.268Z,100403.66
2022-11-13T16:05:42.290Z,100418.38
2022-11-13T16:08:14.899Z,100422.44
2022-11-13T16:10:44.402Z,100416.50
2022-11-13T16:13:13.215Z,100413.00
2022-11-13T16:15:41.311Z,100409.53
2022-11-13T16:18:20.957Z,100410.91
2022-11-13T16:20:49.631Z,100409.00
2022-11-13T16:23:18.557Z,100415.66
2022-11-13T16:25:49.497Z,100422.59
2022-11-13T16:28:18.478Z,100423.06
2022-11-13T16:30:47.315Z,100420.09
2022-11-13T16:33:15.437Z,100416.66
2022-11-13T16:35:43.433Z,100418.25
2022-11-13T16:38:13.918Z,100423.78
2022-11-13T16:40:43.373Z,100419.75
2022-11-13T16:43:13.235Z,100416.25
2022-11-13T16:45:41.249Z,100421.69
2022-11-13T16:48:14.042Z,100417.19
2022-11-13T16:50:42.763Z,100415.56
2022-11-13T16:53:11.469Z,100417.13
2022-11-13T16:55:39.677Z,100416.63
2022-11-13T16:58:07.779Z,100417.19
2022-11-13T17:00:37.217Z,100428.66
2022-11-13T17:03:05.785Z,100435.97
2022-11-13T17:05:33.788Z,100432.75
2022-11-13T17:08:01.930Z,100423.63
2022-11-13T17:10:31.875Z,100429.56
2022-11-13T17:13:00.939Z,100422.03
2022-11-13T17:15:28.975Z,100424.72
2022-11-13T17:17:59.748Z,100416.94
2022-11-13T17:20:27.898Z,100419.28
2022-11-13T17:22:56.117Z,100422.41
2022-11-13T17:25:26.856Z,100425.81
2022-11-13T17:27:55.441Z,100412.06
2022-11-13T17:30:23.585Z,100414.22
2022-11-13T17:32:51.727Z,100420.16
2022-11-13T17:35:21.140Z,100420.16
2022-11-13T17:37:49.150Z,100423.88
2022-11-13T17:40:17.829Z,100415.31
2022-11-13T17:42:48.098Z,100415.03
2022-11-13T17:45:16.681Z,100415.31
2022-11-13T17:47:44.703Z,100412.06
2022-11-13T17:50:12.748Z,100405.88
2022-11-13T17:52:42.129Z,100399.72
2022-11-13T17:55:13.080Z,100404.44
2022-11-13T17:57:41.094Z,100408.22
2022-11-13T18:00:10.677Z,100407.19
2022-11-13T18:02:39.671Z,100413.66
2022-11-13T18:05:10.048Z,100405.94
2022-11-13T18:07:38.425Z,100402.94
2022-11-13T18:10:10.970Z,100400.25
2022-11-13T18:12:39.306Z,100401.88
2022-11-13T18:15:09.095Z,100417.22
2022-11-13T18:17:37.368Z,100399.56
2022-11-13T18:20:06.170Z,100403.84
2022-11-13T18:22:34.454Z,100407.63
2022-11-13T18:25:03.461Z,100411.59
2022-11-13T18:27:33.056Z,100399.72
2022-11-13T18:30:01.242Z,100399.16
2022-11-13T18:32:29.465Z,100397.28
2022-11-13T18:34:57.509Z,100398.13
2022-11-13T18:37:25.685Z,100399.00
2022-11-13T18:39:53.839Z,100395.69
2022-11-13T18:42:22.231Z,100397.56
2022-11-13T18:44:51.763Z,100397.28
2022-11-13T18:47:20.114Z,100394.88
2022-11-13T18:49:48.263Z,100395.97
2022-11-13T18:52:16.505Z,100392.47
2022-11-13T18:54:44.546Z,100396.47
2022-11-13T18:57:12.627Z,100392.41
2022-11-13T18:59:40.690Z,100404.22
2022-11-13T19:02:12.824Z,100396.09
2022-11-13T19:04:40.942Z,100395.34
2022-11-13T19:07:12.283Z,100387.06
2022-11-13T19:09:45.075Z,100390.19
2022-11-13T19:12:13.162Z,100381.84
2022-11-13T19:14:41.212Z,100385.63
2022-11-13T19:17:09.878Z,100390.91
2022-11-13T19:19:41.808Z,100395.47
2022-11-13T19:22:09.938Z,100396.84
2022-11-13T19:24:38.042Z,100389.31
2022-11-13T19:27:06.136Z,100382.88
2022-11-13T19:29:34.202Z,100379.94
2022-11-13T19:32:02.158Z,100378.66
2022-11-13T19:34:30.256Z,100377.34
2022-11-13T19:36:59.712Z,100383.50
2022-11-13T19:39:27.774Z,100382.44
2022-11-13T19:41:55.786Z,100378.13
2022-11-13T19:44:23.763Z,100380.53
2022-11-13T19:46:51.862Z,100389.66
2022-11-13T19:49:19.914Z,100387.34
2022-11-13T19:51:47.886Z,100397.28
2022-11-13T19:54:17.761Z,100386.25
2022-11-13T19:56:45.728Z,100385.75
2022-11-13T19:59:14.032Z,100377.94
2022-11-13T20:01:43.451Z,100388.66
2022-11-13T20:04:13.054Z,100384.09
2022-11-13T20:06:41.273Z,100381.19
2022-11-13T20:09:09.318Z,100381.38
2022-11-13T20:11:38.782Z,100378.66
2022-11-13T20:14:06.860Z,100370.53
2022-11-13T20:16:34.976Z,100365.13
2022-11-13T20:19:03.853Z,100369.16
2022-11-13T20:21:32.603Z,100367.56
2022-11-13T20:24:01.449Z,100362.50
2022-11-13T20:26:29.931Z,100366.78
2022-11-13T20:28:59.429Z,100365.47
2022-11-13T20:31:27.882Z,100365.44
2022-11-13T20:33:57.405Z,100359.22
2022-11-13T20:36:26.302Z,100364.00
2022-11-13T20:38:56.236Z,100351.97
2022-11-13T20:41:25.126Z,100354.91
2022-11-13T20:43:55.805Z,100344.44
2022-11-13T20:46:25.349Z,100352.47
2022-11-13T20:48:53.355Z,100360.16
2022-11-13T20:51:23.785Z,100348.63
2022-11-13T20:53:52.365Z,100357.25
2022-11-13T20:56:22.274Z,100357.97
2022-11-13T20:58:50.735Z,100349.88
2022-11-13T21:01:21.352Z,100342.47
2022-11-13T21:03:50.737Z,100350.59
2022-11-13T21:06:22.313Z,100345.81
2022-11-13T21:08:50.517Z,100338.31
2022-11-13T21:11:22.018Z,100341.00
2022-11-13T21:13:51.287Z,100326.84
2022-11-13T21:16:19.370Z,100338.94
2022-11-13T21:18:47.558Z,100332.25
2022-11-13T21:21:19.386Z,100334.06
2022-11-13T21:23:48.313Z,100334.00
2022-11-13T21:26:17.337Z,100335.81
2022-11-13T21:28:45.863Z,100338.41
2022-11-13T21:31:15.942Z,100340.22
2022-11-13T21:33:45.353Z,100346.16
2022-11-13T21:36:15.891Z,100348.03
2022-11-13T21:38:45.457Z,100345.28
2022-11-13T21:41:24.887Z,100348.72
2022-11-13T21:43:57.951Z,100342.16
2022-11-13T21:46:29.123Z,100345.03
2022-11-13T21:48:58.669Z,100339.31
2022-11-13T21:51:26.997Z,100337.94
2022-11-13T21:53:56.840Z,100343.59
2022-11-13T21:56:25.599Z,100342.03
2022-11-13T21:58:53.929Z,100339.69
2022-11-13T22:01:23.697Z,100343.75
2022-11-13T22:03:52.246Z,100338.06
2022-11-13T22:06:22.479Z,100345.28
2022-11-13T22:08:57.433Z,100340.00
2022-11-13T22:11:25.697Z,100331.47
2022-11-13T22:13:54.023Z,100337.69
2022-11-13T22:16:22.864Z,100334.81
2022-11-13T22:18:54.931Z,100335.44
2022-11-13T22:21:23.957Z,100340.88
2022-11-13T22:23:52.384Z,100339.66
2022-11-13T22:26:22.887Z,100330.16
2022-11-13T22:28:51.932Z,100333.50
2022-11-13T22:31:22.358Z,100339.69
2022-11-13T22:33:54.671Z,100339.34
2022-11-13T22:36:25.108Z,100334.06
2022-11-13T22:38:53.525Z,100330.94
2022-11-13T22:41:24.630Z,100327.53
2022-11-13T22:43:59.717Z,100332.56
2022-11-13T22:46:29.457Z,100325.00
2022-11-13T22:48:59.769Z,100327.25
2022-11-13T22:51:29.555Z,100328.03
2022-11-13T22:53:59.062Z,100328.53
2022-11-13T22:56:30.190Z,100324.16
2022-11-13T22:59:00.124Z,100322.03
2022-11-13T23:01:29.665Z,100328.19
2022-11-13T23:03:59.335Z,100323.66
2022-11-13T23:06:28.892Z,100323.66
2022-11-13T23:08:57.040Z,100329.19
2022-11-13T23:11:31.383Z,100325.13
2022-11-13T23:14:00.974Z,100323.34
2022-11-13T23:16:30.183Z,100323.66
2022-11-13T23:18:59.764Z,100315.44
2022-11-13T23:21:29.429Z,100319.06
2022-11-13T23:23:58.060Z,100319.66
2022-11-13T23:26:27.113Z,100319.50
2022-11-13T23:28:57.213Z,100317.63
2022-11-13T23:31:25.558Z,100313.63
2022-11-13T23:33:53.622Z,100320.91
2022-11-13T23:36:21.576Z,100304.03
2022-11-13T23:38:49.593Z,100306.97
2022-11-13T23:41:17.546Z,100316.09
2022-11-13T23:46:34.827Z,100313.72
2022-11-13T23:49:02.900Z,100310.81
2022-11-13T23:51:30.936Z,100321.03
2022-11-13T23:53:58.882Z,100316.22
2022-11-13T23:56:26.922Z,100311.44
2022-11-13T23:58:54.922Z,100309.59
